sensor_id;sensor_type;location;lat;lon;timestamp;pressure;altitude;pressure_sealevel;temperature;humidity
67818;BME280;54614;47.576;7.524;2023-02-14T00:00:21;100294.34;;;23.74;31.67
67818;BME280;54614;47.576;7.524;2023-02-14T00:02:48;100291.50;;;23.75;31.74
67818;BME280;54614;47.576;7.524;2023-02-14T00:05:14;100290.81;;;23.73;31.60
67818;BME280;54614;47.576;7.524;2023-02-14T00:07:40;100282.25;;;23.70;31.71
67818;BME280;54614;47.576;7.524;2023-02-14T00:10:08;100285.78;;;23.70;31.62
67818;BME280;54614;47.576;7.524;2023-02-14T00:12:34;100289.97;;;23.73;31.53
67818;BME280;54614;47.576;7.524;2023-02-14T00:15:00;100288.13;;;23.73;31.49
67818;BME280;54614;47.576;7.524;2023-02-14T00:17:44;100287.44;;;23.71;31.77
67818;BME280;54614;47.576;7.524;2023-02-14T00:20:11;100286.63;;;23.71;31.52
67818;BME280;54614;47.576;7.524;2023-02-14T00:22:36;100288.78;;;23.67;31.61
67818;BME280;54614;47.576;7.524;2023-02-14T00:25:02;100286.75;;;23.61;31.48
67818;BME280;54614;47.576;7.524;2023-02-14T00:27:28;100278.88;;;23.68;31.76
67818;BME280;54614;47.576;7.524;2023-02-14T00:29:54;100283.56;;;23.66;31.35
67818;BME280;54614;47.576;7.524;2023-02-14T00:32:23;100286.25;;;23.66;31.44
67818;BME280;54614;47.576;7.524;2023-02-14T00:34:48;100280.38;;;23.62;31.82
67818;BME280;54614;47.576;7.524;2023-02-14T00:37:14;100284.59;;;23.65;31.52
67818;BME280;54614;47.576;7.524;2023-02-14T00:39:40;100283.41;;;23.67;31.68
67818;BME280;54614;47.576;7.524;2023-02-14T00:42:06;100283.06;;;23.62;31.63
67818;BME280;54614;47.576;7.524;2023-02-14T00:44:31;100286.25;;;23.66;31.63
67818;BME280;54614;47.576;7.524;2023-02-14T00:46:57;100287.94;;;23.67;31.53
67818;BME280;54614;47.576;7.524;2023-02-14T00:49:23;100288.13;;;23.65;31.28
67818;BME280;54614;47.576;7.524;2023-02-14T00:51:49;100285.94;;;23.69;31.44
67818;BME280;54614;47.576;7.524;2023-02-14T00:54:15;100283.94;;;23.71;31.37
67818;BME280;54614;47.576;7.524;2023-02-14T00:56:40;100283.41;;;23.67;31.34
67818;BME280;54614;47.576;7.524;2023-02-14T00:59:07;100276.69;;;23.63;31.48
67818;BME280;54614;47.576;7.524;2023-02-14T01:01:33;100278.53;;;23.63;31.58
67818;BME280;54614;47.576;7.524;2023-02-14T01:03:59;100281.22;;;23.63;31.38
67818;BME280;54614;47.576;7.524;2023-02-14T01:06:25;100280.22;;;23.64;31.44
67818;BME280;54614;47.576;7.524;2023-02-14T01:08:50;100276.69;;;23.63;31.50
67818;BME280;54614;47.576;7.524;2023-02-14T01:11:20;100275.16;;;23.61;31.38
67818;BME280;54614;47.576;7.524;2023-02-14T01:13:48;100276.00;;;23.61;31.26
67818;BME280;54614;47.576;7.524;2023-02-14T01:16:19;100277.19;;;23.59;31.57
67818;BME280;54614;47.576;7.524;2023-02-14T01:18:45;100275.34;;;23.59;31.22
67818;BME280;54614;47.576;7.524;2023-02-14T01:23:47;100272.31;;;23.54;31.58
67818;BME280;54614;47.576;7.524;2023-02-14T01:26:14;100272.31;;;23.54;31.31
67818;BME280;54614;47.576;7.524;2023-02-14T01:28:42;100267.22;;;23.51;31.50
67818;BME280;54614;47.576;7.524;2023-02-14T01:31:17;100269.44;;;23.56;31.42
67818;BME280;54614;47.576;7.524;2023-02-14T01:33:45;100278.81;;;23.52;31.57
67818;BME280;54614;47.576;7.524;2023-02-14T01:36:36;100272.59;;;23.51;31.21
67818;BME280;54614;47.576;7.524;2023-02-14T01:39:07;100270.91;;;23.50;31.29
67818;BME280;54614;47.576;7.524;2023-02-14T01:41:36;100278.97;;;23.50;31.60
67818;BME280;54614;47.576;7.524;2023-02-14T01:46:42;100272.59;;;23.51;31.56
67818;BME280;54614;47.576;7.524;2023-02-14T01:49:14;100267.56;;;23.48;31.39
67818;BME280;54614;47.576;7.524;2023-02-14T01:51:53;100273.59;;;23.50;31.18
67818;BME280;54614;47.576;7.524;2023-02-14T01:54:24;100269.91;;;23.51;31.39
67818;BME280;54614;47.576;7.524;2023-02-14T01:56:58;100270.91;;;23.50;31.64
67818;BME280;54614;47.576;7.524;2023-02-14T01:59:33;100263.88;;;23.49;31.37
67818;BME280;54614;47.576;7.524;2023-02-14T02:02:01;100264.88;;;23.48;31.52
67818;BME280;54614;47.576;7.524;2023-02-14T02:04:45;100260.50;;;23.47;31.41
67818;BME280;54614;47.576;7.524;2023-02-14T02:07:23;100257.81;;;23.47;31.21
67818;BME280;54614;47.576;7.524;2023-02-14T02:09:56;100258.16;;;23.44;31.52
67818;BME280;54614;47.576;7.524;2023-02-14T02:12:24;100252.59;;;23.45;31.45
67818;BME280;54614;47.576;7.524;2023-02-14T02:14:54;100254.63;;;23.43;31.47
67818;BME280;54614;47.576;7.524;2023-02-14T02:37:24;100243.69;;;23.37;31.55
67818;BME280;54614;47.576;7.524;2023-02-14T02:48:14;100235.97;;;23.34;31.59
67818;BME280;54614;47.576;7.524;2023-02-14T02:50:54;100232.94;;;23.37;31.32
67818;BME280;54614;47.576;7.524;2023-02-14T02:53:57;100234.28;;;23.33;31.38
67818;BME280;54614;47.576;7.524;2023-02-14T02:56:50;100228.41;;;23.29;31.26
67818;BME280;54614;47.576;7.524;2023-02-14T02:59:34;100223.88;;;23.30;31.37
67818;BME280;54614;47.576;7.524;2023-02-14T03:02:17;100228.22;;;23.31;31.27
67818;BME280;54614;47.576;7.524;2023-02-14T03:04:50;100233.09;;;23.27;31.49
67818;BME280;54614;47.576;7.524;2023-02-14T03:07:37;100231.75;;;23.31;31.25
67818;BME280;54614;47.576;7.524;2023-02-14T03:10:20;100227.41;;;23.30;31.25
67818;BME280;54614;47.576;7.524;2023-02-14T03:24:55;100226.38;;;23.23;31.61
67818;BME280;54614;47.576;7.524;2023-02-14T03:27:59;100232.56;;;23.24;31.37
67818;BME280;54614;47.576;7.524;2023-02-14T03:36:41;100230.06;;;23.22;31.45
67818;BME280;54614;47.576;7.524;2023-02-14T03:39:32;100239.28;;;23.20;31.50
67818;BME280;54614;47.576;7.524;2023-02-14T03:42:31;100239.28;;;23.20;31.42
67818;BME280;54614;47.576;7.524;2023-02-14T03:45:01;100248.50;;;23.17;31.58
67818;BME280;54614;47.576;7.524;2023-02-14T03:47:33;100249.16;;;23.19;31.63
67818;BME280;54614;47.576;7.524;2023-02-14T03:50:13;100254.69;;;23.18;31.58
67818;BME280;54614;47.576;7.524;2023-02-14T03:52:42;100250.19;;;23.18;31.66
67818;BME280;54614;47.576;7.524;2023-02-14T03:55:14;100247.66;;;23.17;31.57
67818;BME280;54614;47.576;7.524;2023-02-14T03:58:11;100241.78;;;23.21;31.40
67818;BME280;54614;47.576;7.524;2023-02-14T04:00:41;100246.97;;;23.14;31.48
67818;BME280;54614;47.576;7.524;2023-02-14T04:03:11;100248.97;;;23.12;31.60
67818;BME280;54614;47.576;7.524;2023-02-14T04:05:40;100248.63;;;23.07;31.65
67818;BME280;54614;47.576;7.524;2023-02-14T04:08:09;100246.63;;;23.09;31.50
67818;BME280;54614;47.576;7.524;2023-02-14T04:10:37;100248.97;;;23.12;31.30
67818;BME280;54614;47.576;7.524;2023-02-14T04:13:04;100254.66;;;23.09;31.50
67818;BME280;54614;47.576;7.524;2023-02-14T04:15:30;100251.66;;;23.12;31.42
67818;BME280;54614;47.576;7.524;2023-02-14T04:17:56;100244.63;;;23.11;31.24
67818;BME280;54614;47.576;7.524;2023-02-14T04:20:40;100250.47;;;23.07;30.94
67818;BME280;54614;47.576;7.524;2023-02-14T04:23:06;100247.09;;;23.05;31.29
67818;BME280;54614;47.576;7.524;2023-02-14T04:25:32;100244.59;;;23.03;31.20
67818;BME280;54614;47.576;7.524;2023-02-14T04:27:58;100248.09;;;23.04;30.85
67818;BME280;54614;47.576;7.524;2023-02-14T04:30:23;100250.97;;;23.02;31.07
67818;BME280;54614;47.576;7.524;2023-02-14T04:32:49;100246.78;;;23.08;31.00
67818;BME280;54614;47.576;7.524;2023-02-14T04:35:15;100252.66;;;23.11;30.75
67818;BME280;54614;47.576;7.524;2023-02-14T04:37:41;100248.28;;;23.02;30.91
67818;BME280;54614;47.576;7.524;2023-02-14T04:40:08;100247.94;;;23.05;30.94
67818;BME280;54614;47.576;7.524;2023-02-14T04:42:34;100250.97;;;23.02;30.87
67818;BME280;54614;47.576;7.524;2023-02-14T04:45:00;100243.41;;;23.06;30.63
67818;BME280;54614;47.576;7.524;2023-02-14T04:47:26;100236.72;;;23.10;30.59
67818;BME280;54614;47.576;7.524;2023-02-14T04:49:51;100235.34;;;22.98;30.75
67818;BME280;54614;47.576;7.524;2023-02-14T04:52:17;100239.53;;;23.00;30.43
67818;BME280;54614;47.576;7.524;2023-02-14T04:54:43;100234.34;;;22.99;30.55
67818;BME280;54614;47.576;7.524;2023-02-14T04:57:09;100238.38;;;23.03;30.37
67818;BME280;54614;47.576;7.524;2023-02-14T04:59:35;100234.84;;;23.02;30.36
67818;BME280;54614;47.576;7.524;2023-02-14T05:02:00;100232.84;;;23.04;30.12
67818;BME280;54614;47.576;7.524;2023-02-14T05:04:26;100232.53;;;23.07;29.98
67818;BME280;54614;47.576;7.524;2023-02-14T05:06:52;100228.84;;;23.08;29.99
67818;BME280;54614;47.576;7.524;2023-02-14T05:09:18;100224.31;;;23.09;30.43
67818;BME280;54614;47.576;7.524;2023-02-14T05:11:44;100229.19;;;23.13;30.70
67818;BME280;54614;47.576;7.524;2023-02-14T05:14:10;100227.03;;;23.17;30.88
67818;BME280;54614;47.576;7.524;2023-02-14T05:16:35;100226.88;;;23.27;34.09
67818;BME280;54614;47.576;7.524;2023-02-14T05:19:29;100223.19;;;23.28;31.56
67818;BME280;54614;47.576;7.524;2023-02-14T05:21:55;100233.44;;;23.32;31.29
67818;BME280;54614;47.576;7.524;2023-02-14T05:24:21;100232.94;;;23.37;31.55
67818;BME280;54614;47.576;7.524;2023-02-14T05:26:47;100236.31;;;23.39;31.17
67818;BME280;54614;47.576;7.524;2023-02-14T05:29:12;100226.41;;;23.39;31.52
67818;BME280;54614;47.576;7.524;2023-02-14T05:31:38;100237.34;;;23.46;31.56
67818;BME280;54614;47.576;7.524;2023-02-14T05:34:04;100237.84;;;23.50;31.17
67818;BME280;54614;47.576;7.524;2023-02-14T05:36:30;100241.88;;;23.54;31.17
67818;BME280;54614;47.576;7.524;2023-02-14T05:38:56;100244.94;;;23.59;31.11
67818;BME280;54614;47.576;7.524;2023-02-14T05:41:22;100240.94;;;23.63;31.37
67818;BME280;54614;47.576;7.524;2023-02-14T05:43:48;100245.28;;;23.64;31.19
67818;BME280;54614;47.576;7.524;2023-02-14T05:46:14;100245.81;;;23.67;31.47
67818;BME280;54614;47.576;7.524;2023-02-14T05:48:40;100250.00;;;23.70;31.25
67818;BME280;54614;47.576;7.524;2023-02-14T05:51:08;100254.19;;;23.72;31.38
67818;BME280;54614;47.576;7.524;2023-02-14T05:53:35;100257.06;;;23.79;31.28
67818;BME280;54614;47.576;7.524;2023-02-14T05:56:01;100253.22;;;23.82;31.10
67818;BME280;54614;47.576;7.524;2023-02-14T05:58:27;100251.69;;;23.79;31.56
67818;BME280;54614;47.576;7.524;2023-02-14T06:00:53;100261.94;;;23.84;31.34
67818;BME280;54614;47.576;7.524;2023-02-14T06:03:20;100260.78;;;23.86;31.41
67818;BME280;54614;47.576;7.524;2023-02-14T06:05:46;100260.09;;;23.92;31.38
67818;BME280;54614;47.576;7.524;2023-02-14T06:08:12;100261.78;;;23.93;31.61
67818;BME280;54614;47.576;7.524;2023-02-14T06:10:37;100259.28;;;24.00;31.39
67818;BME280;54614;47.576;7.524;2023-02-14T06:13:03;100264.97;;;24.05;31.63
67818;BME280;54614;47.576;7.524;2023-02-14T06:15:37;100262.63;;;24.02;31.35
67818;BME280;54614;47.576;7.524;2023-02-14T06:18:04;100267.84;;;24.03;31.61
67818;BME280;54614;47.576;7.524;2023-02-14T06:20:30;100264.66;;;24.08;31.55
67818;BME280;54614;47.576;7.524;2023-02-14T06:22:56;100261.63;;;24.11;31.78
67818;BME280;54614;47.576;7.524;2023-02-14T06:25:24;100272.88;;;24.15;31.62
67818;BME280;54614;47.576;7.524;2023-02-14T06:27:50;100269.00;;;24.17;31.35
67818;BME280;54614;47.576;7.524;2023-02-14T06:30:17;100272.38;;;24.19;31.65
67818;BME280;54614;47.576;7.524;2023-02-14T06:32:43;100274.38;;;24.17;31.73
67818;BME280;54614;47.576;7.524;2023-02-14T06:35:09;100278.59;;;24.20;31.51
67818;BME280;54614;47.576;7.524;2023-02-14T06:37:35;100279.09;;;24.23;31.69
67818;BME280;54614;47.576;7.524;2023-02-14T06:40:03;100274.56;;;24.24;31.32
67818;BME280;54614;47.576;7.524;2023-02-14T06:42:29;100276.91;;;24.19;31.74
67818;BME280;54614;47.576;7.524;2023-02-14T06:44:55;100287.84;;;24.25;32.47
67818;BME280;54614;47.576;7.524;2023-02-14T06:47:21;100286.19;;;24.32;34.42
67818;BME280;54614;47.576;7.524;2023-02-14T06:49:47;100283.81;;;24.37;34.22
67818;BME280;54614;47.576;7.524;2023-02-14T06:52:12;100283.97;;;24.44;34.22
67818;BME280;54614;47.576;7.524;2023-02-14T06:54:39;100286.84;;;24.51;33.71
67818;BME280;54614;47.576;7.524;2023-02-14T06:57:05;100286.00;;;24.50;33.70
67818;BME280;54614;47.576;7.524;2023-02-14T06:59:31;100279.25;;;24.62;33.42
67818;BME280;54614;47.576;7.524;2023-02-14T07:01:56;100288.66;;;24.66;33.53
67818;BME280;54614;47.576;7.524;2023-02-14T07:04:22;100285.63;;;24.69;33.08
67818;BME280;54614;47.576;7.524;2023-02-14T07:06:48;100280.25;;;24.69;32.90
67818;BME280;54614;47.576;7.524;2023-02-14T07:09:14;100280.94;;;24.63;32.65
67818;BME280;54614;47.576;7.524;2023-02-14T07:11:46;100280.09;;;24.63;31.47
67818;BME280;54614;47.576;7.524;2023-02-14T07:14:12;100288.69;;;24.50;31.40
67818;BME280;54614;47.576;7.524;2023-02-14T07:16:39;100283.47;;;24.49;31.47
67818;BME280;54614;47.576;7.524;2023-02-14T07:19:04;100281.78;;;24.56;31.01
67818;BME280;54614;47.576;7.524;2023-02-14T07:21:30;100286.84;;;24.51;31.18
67818;BME280;54614;47.576;7.524;2023-02-14T07:23:56;100288.00;;;24.48;30.92
67818;BME280;54614;47.576;7.524;2023-02-14T07:26:22;100285.81;;;24.52;30.72
67818;BME280;54614;47.576;7.524;2023-02-14T07:28:48;100284.81;;;24.53;30.94
67818;BME280;54614;47.576;7.524;2023-02-14T07:31:15;100291.22;;;24.52;30.80
67818;BME280;54614;47.576;7.524;2023-02-14T07:33:41;100288.34;;;24.53;30.89
67818;BME280;54614;47.576;7.524;2023-02-14T07:36:08;100283.63;;;24.55;30.85
67818;BME280;54614;47.576;7.524;2023-02-14T07:38:35;100289.00;;;24.55;30.79
67818;BME280;54614;47.576;7.524;2023-02-14T07:41:01;100292.88;;;24.53;30.83
67818;BME280;54614;47.576;7.524;2023-02-14T07:43:27;100290.69;;;24.56;30.48
67818;BME280;54614;47.576;7.524;2023-02-14T07:45:54;100287.16;;;24.56;30.81
67818;BME280;54614;47.576;7.524;2023-02-14T07:48:21;100274.38;;;24.58;30.41
67818;BME280;54614;47.576;7.524;2023-02-14T07:50:47;100277.91;;;24.58;30.60
67818;BME280;54614;47.576;7.524;2023-02-14T07:53:13;100275.22;;;24.58;30.58
67818;BME280;54614;47.576;7.524;2023-02-14T07:55:39;100272.88;;;24.55;30.62
67818;BME280;54614;47.576;7.524;2023-02-14T07:58:05;100278.44;;;24.54;30.31
67818;BME280;54614;47.576;7.524;2023-02-14T08:00:32;100272.53;;;24.58;30.52
67818;BME280;54614;47.576;7.524;2023-02-14T08:02:57;100274.72;;;24.63;30.36
67818;BME280;54614;47.576;7.524;2023-02-14T08:05:23;100275.06;;;24.60;30.27
67818;BME280;54614;47.576;7.524;2023-02-14T08:07:49;100281.09;;;24.62;30.43
67818;BME280;54614;47.576;7.524;2023-02-14T08:10:15;100281.78;;;24.64;30.58
67818;BME280;54614;47.576;7.524;2023-02-14T08:12:41;100281.59;;;24.65;30.17
67818;BME280;54614;47.576;7.524;2023-02-14T08:15:32;100277.72;;;24.68;30.25
67818;BME280;54614;47.576;7.524;2023-02-14T08:18:18;100272.34;;;24.68;30.53
67818;BME280;54614;47.576;7.524;2023-02-14T08:20:46;100274.53;;;24.72;30.53
67818;BME280;54614;47.576;7.524;2023-02-14T08:23:16;100268.28;;;24.72;30.40
67818;BME280;54614;47.576;7.524;2023-02-14T08:25:42;100260.22;;;24.72;30.42
67818;BME280;54614;47.576;7.524;2023-02-14T08:28:09;100262.91;;;24.72;30.44
67818;BME280;54614;47.576;7.524;2023-02-14T08:30:36;100255.50;;;24.74;30.47
67818;BME280;54614;47.576;7.524;2023-02-14T08:33:06;100262.22;;;24.78;30.64
67818;BME280;54614;47.576;7.524;2023-02-14T08:35:32;100258.00;;;24.84;30.18
67818;BME280;54614;47.576;7.524;2023-02-14T08:37:58;100261.53;;;24.84;30.40
67818;BME280;54614;47.576;7.524;2023-02-14T08:40:24;100257.00;;;24.85;30.47
67818;BME280;54614;47.576;7.524;2023-02-14T08:42:50;100255.97;;;24.86;30.36
67818;BME280;54614;47.576;7.524;2023-02-14T08:45:16;100252.09;;;24.88;30.32
67818;BME280;54614;47.576;7.524;2023-02-14T08:47:42;100264.72;;;24.88;30.34
67818;BME280;54614;47.576;7.524;2023-02-14T08:50:13;100266.41;;;24.89;30.44
67818;BME280;54614;47.576;7.524;2023-02-14T08:52:40;100265.03;;;24.93;30.37
67818;BME280;54614;47.576;7.524;2023-02-14T08:55:10;100260.66;;;24.92;30.35
67818;BME280;54614;47.576;7.524;2023-02-14T08:57:36;100265.38;;;24.90;30.30
67818;BME280;54614;47.576;7.524;2023-02-14T09:00:03;100265.69;;;24.95;30.25
67818;BME280;54614;47.576;7.524;2023-02-14T09:02:29;100253.09;;;24.95;30.41
67818;BME280;54614;47.576;7.524;2023-02-14T09:04:55;100258.47;;;24.95;30.24
67818;BME280;54614;47.576;7.524;2023-02-14T09:07:21;100254.44;;;24.99;30.28
67818;BME280;54614;47.576;7.524;2023-02-14T09:09:47;100257.44;;;24.96;30.32
67818;BME280;54614;47.576;7.524;2023-02-14T09:12:12;100252.75;;;24.98;30.03
67818;BME280;54614;47.576;7.524;2023-02-14T09:14:42;100252.41;;;25.01;30.16
67818;BME280;54614;47.576;7.524;2023-02-14T09:17:12;100252.25;;;25.03;29.99
67818;BME280;54614;47.576;7.524;2023-02-14T09:19:39;100254.09;;;25.02;30.08
67818;BME280;54614;47.576;7.524;2023-02-14T09:22:07;100254.94;;;25.03;29.90
67818;BME280;54614;47.576;7.524;2023-02-14T09:24:36;100248.53;;;25.04;29.81
67818;BME280;54614;47.576;7.524;2023-02-14T09:27:03;100245.34;;;25.00;29.93
67818;BME280;54614;47.576;7.524;2023-02-14T09:29:29;100242.31;;;25.03;29.96
67818;BME280;54614;47.576;7.524;2023-02-14T09:31:59;100242.63;;;25.09;29.63
67818;BME280;54614;47.576;7.524;2023-02-14T09:34:26;100239.22;;;25.15;29.61
67818;BME280;54614;47.576;7.524;2023-02-14T09:36:53;100242.63;;;25.09;29.74
67818;BME280;54614;47.576;7.524;2023-02-14T09:39:19;100245.97;;;25.11;29.67
67818;BME280;54614;47.576;7.524;2023-02-14T09:42:45;100249.00;;;25.16;29.52
67818;BME280;54614;47.576;7.524;2023-02-14T09:45:24;100238.22;;;25.16;29.48
67818;BME280;54614;47.576;7.524;2023-02-14T09:47:56;100246.47;;;25.14;29.69
67818;BME280;54614;47.576;7.524;2023-02-14T09:50:52;100241.56;;;25.18;29.84
67818;BME280;54614;47.576;7.524;2023-02-14T09:53:27;100243.44;;;25.17;29.68
67818;BME280;54614;47.576;7.524;2023-02-14T09:56:46;100240.22;;;25.22;29.56
67818;BME280;54614;47.576;7.524;2023-02-14T10:07:56;100236.81;;;25.28;29.63
67818;BME280;54614;47.576;7.524;2023-02-14T10:10:39;100224.19;;;25.28;29.40
67818;BME280;54614;47.576;7.524;2023-02-14T10:13:19;100222.31;;;25.29;29.46
67818;BME280;54614;47.576;7.524;2023-02-14T10:16:03;100220.78;;;25.34;29.51
67818;BME280;54614;47.576;7.524;2023-02-14T10:18:45;100224.97;;;25.37;29.53
67818;BME280;54614;47.576;7.524;2023-02-14T10:21:27;100216.91;;;25.37;29.68
67818;BME280;54614;47.576;7.524;2023-02-14T10:24:05;100221.09;;;25.39;29.64
67818;BME280;54614;47.576;7.524;2023-02-14T10:26:38;100212.34;;;25.37;29.46
67818;BME280;54614;47.576;7.524;2023-02-14T10:29:12;100219.59;;;25.37;29.72
67818;BME280;54614;47.576;7.524;2023-02-14T10:31:55;100217.03;;;25.44;29.69
67818;BME280;54614;47.576;7.524;2023-02-14T10:37:39;100206.06;;;25.45;30.16
67818;BME280;54614;47.576;7.524;2023-02-14T10:40:54;100209.47;;;25.39;30.28
67818;BME280;54614;47.576;7.524;2023-02-14T10:43:57;100211.19;;;25.01;31.02
67818;BME280;54614;47.576;7.524;2023-02-14T10:46:40;100208.38;;;24.86;30.92
67818;BME280;54614;47.576;7.524;2023-02-14T10:52:25;100183.91;;;25.04;30.78
67818;BME280;54614;47.576;7.524;2023-02-14T10:54:59;100184.88;;;25.11;30.69
67818;BME280;54614;47.576;7.524;2023-02-14T10:57:40;100189.16;;;24.89;31.37
67818;BME280;54614;47.576;7.524;2023-02-14T11:00:21;100179.41;;;24.88;31.18
67818;BME280;54614;47.576;7.524;2023-02-14T11:02:56;100183.78;;;24.89;31.47
67818;BME280;54614;47.576;7.524;2023-02-14T11:05:35;100172.66;;;24.92;31.43
67818;BME280;54614;47.576;7.524;2023-02-14T11:11:29;100160.03;;;25.01;31.65
67818;BME280;54614;47.576;7.524;2023-02-14T11:13:58;100152.63;;;25.03;31.49
67818;BME280;54614;47.576;7.524;2023-02-14T11:16:32;100155.81;;;25.06;31.54
67818;BME280;54614;47.576;7.524;2023-02-14T11:19:21;100154.06;;;25.14;31.28
67818;BME280;54614;47.576;7.524;2023-02-14T11:21:49;100153.41;;;25.12;31.26
67818;BME280;54614;47.576;7.524;2023-02-14T11:29:46;100140.44;;;25.15;30.97
67818;BME280;54614;47.576;7.524;2023-02-14T11:32:23;100134.03;;;25.16;31.11
67818;BME280;54614;47.576;7.524;2023-02-14T11:35:05;100129.06;;;25.28;30.71
67818;BME280;54614;47.576;7.524;2023-02-14T11:37:43;100118.97;;;25.30;30.94
67818;BME280;54614;47.576;7.524;2023-02-14T11:40:34;100118.91;;;25.38;30.89
67818;BME280;54614;47.576;7.524;2023-02-14T11:43:19;100118.53;;;25.41;30.65
67818;BME280;54614;47.576;7.524;2023-02-14T11:46:16;100117.22;;;25.37;30.82
67818;BME280;54614;47.576;7.524;2023-02-14T11:49:05;100115.13;;;25.47;30.66
67818;BME280;54614;47.576;7.524;2023-02-14T11:51:44;100107.88;;;25.48;30.73
67818;BME280;54614;47.576;7.524;2023-02-14T11:54:35;100110.03;;;25.52;30.65
67818;BME280;54614;47.576;7.524;2023-02-14T11:59:41;100103.16;;;25.50;31.21
67818;BME280;54614;47.576;7.524;2023-02-14T12:02:31;100097.50;;;25.59;31.15
67818;BME280;54614;47.576;7.524;2023-02-14T12:07:43;100082.00;;;25.61;31.08
67818;BME280;54614;47.576;7.524;2023-02-14T12:13:18;100081.28;;;25.67;30.89
67818;BME280;54614;47.576;7.524;2023-02-14T12:18:35;100066.13;;;25.66;30.81
67818;BME280;54614;47.576;7.524;2023-02-14T12:21:20;100061.22;;;25.70;30.69
67818;BME280;54614;47.576;7.524;2023-02-14T12:27:13;100056.19;;;25.67;31.31
67818;BME280;54614;47.576;7.524;2023-02-14T12:29:46;100055.03;;;25.61;31.25
67818;BME280;54614;47.576;7.524;2023-02-14T12:32:24;100058.56;;;25.62;31.35
67818;BME280;54614;47.576;7.524;2023-02-14T12:43:48;100042.97;;;25.57;31.45
67818;BME280;54614;47.576;7.524;2023-02-14T12:53:00;100035.16;;;25.62;31.23
67818;BME280;54614;47.576;7.524;2023-02-14T13:05:13;100013.19;;;25.36;32.07
67818;BME280;54614;47.576;7.524;2023-02-14T13:07:53;100014.28;;;25.27;32.30
67818;BME280;54614;47.576;7.524;2023-02-14T13:16:22;100000.41;;;25.15;32.26
67818;BME280;54614;47.576;7.524;2023-02-14T13:21:41;99990.00;;;25.12;32.15
67818;BME280;54614;47.576;7.524;2023-02-14T13:24:21;99991.31;;;25.16;32.45
67818;BME280;54614;47.576;7.524;2023-02-14T13:26:54;99989.63;;;25.15;32.59
67818;BME280;54614;47.576;7.524;2023-02-14T13:29:30;99976.47;;;25.20;32.40
67818;BME280;54614;47.576;7.524;2023-02-14T13:32:02;99978.78;;;25.23;32.51
67818;BME280;54614;47.576;7.524;2023-02-14T13:34:36;99977.97;;;25.23;32.57
67818;BME280;54614;47.576;7.524;2023-02-14T13:37:10;99969.03;;;25.22;32.40
67818;BME280;54614;47.576;7.524;2023-02-14T13:40:01;99965.81;;;25.27;32.32
67818;BME280;54614;47.576;7.524;2023-02-14T13:43:04;99969.16;;;25.29;31.95
67818;BME280;54614;47.576;7.524;2023-02-14T13:48:25;99956.84;;;25.79;32.04
67818;BME280;54614;47.576;7.524;2023-02-14T13:51:10;99966.75;;;25.49;32.11
67818;BME280;54614;47.576;7.524;2023-02-14T13:53:45;99959.59;;;25.41;32.13
67818;BME280;54614;47.576;7.524;2023-02-14T13:58:55;99953.94;;;25.36;32.40
67818;BME280;54614;47.576;7.524;2023-02-14T14:01:42;99953.00;;;25.29;32.35
67818;BME280;54614;47.576;7.524;2023-02-14T14:22:54;99949.84;;;25.40;32.02
67818;BME280;54614;47.576;7.524;2023-02-14T14:25:40;99948.34;;;25.37;32.07
67818;BME280;54614;47.576;7.524;2023-02-14T14:28:21;99948.16;;;25.39;31.95
67818;BME280;54614;47.576;7.524;2023-02-14T14:30:49;99935.72;;;25.38;31.89
67818;BME280;54614;47.576;7.524;2023-02-14T14:33:35;99934.06;;;25.37;32.02
67818;BME280;54614;47.576;7.524;2023-02-14T14:36:08;99927.16;;;25.34;31.85
67818;BME280;54614;47.576;7.524;2023-02-14T14:38:50;99933.94;;;25.30;31.87
67818;BME280;54614;47.576;7.524;2023-02-14T14:41:19;99931.44;;;25.29;31.89
67818;BME280;54614;47.576;7.524;2023-02-14T14:43:46;99932.94;;;25.31;31.85
67818;BME280;54614;47.576;7.524;2023-02-14T14:46:13;99930.22;;;25.31;31.60
67818;BME280;54614;47.576;7.524;2023-02-14T14:48:50;99928.75;;;25.29;31.88
67818;BME280;54614;47.576;7.524;2023-02-14T14:51:34;99931.44;;;25.29;31.82
67818;BME280;54614;47.576;7.524;2023-02-14T14:56:51;99924.75;;;25.25;32.07
67818;BME280;54614;47.576;7.524;2023-02-14T15:01:48;99933.38;;;25.20;31.90
67818;BME280;54614;47.576;7.524;2023-02-14T15:04:27;99925.94;;;25.22;32.10
67818;BME280;54614;47.576;7.524;2023-02-14T15:06:56;99925.47;;;25.19;31.93
67818;BME280;54614;47.576;7.524;2023-02-14T15:09:31;99931.88;;;25.18;31.93
67818;BME280;54614;47.576;7.524;2023-02-14T15:12:00;99929.38;;;25.16;32.16
67818;BME280;54614;47.576;7.524;2023-02-14T15:14:59;99924.81;;;25.17;31.84
67818;BME280;54614;47.576;7.524;2023-02-14T15:17:28;99924.53;;;25.12;32.12
67818;BME280;54614;47.576;7.524;2023-02-14T15:20:08;99933.63;;;25.11;32.03
67818;BME280;54614;47.576;7.524;2023-02-14T15:22:44;99927.59;;;25.09;31.98
67818;BME280;54614;47.576;7.524;2023-02-14T15:25:25;99919.53;;;25.09;31.94
67818;BME280;54614;47.576;7.524;2023-02-14T15:27:52;99921.75;;;25.05;32.05
67818;BME280;54614;47.576;7.524;2023-02-14T15:32:46;99919.41;;;25.02;32.10
67818;BME280;54614;47.576;7.524;2023-02-14T15:35:16;99917.56;;;25.02;31.93
67818;BME280;54614;47.576;7.524;2023-02-14T15:37:44;99922.75;;;25.04;31.68
67818;BME280;54614;47.576;7.524;2023-02-14T15:40:25;99918.22;;;25.04;31.90
67818;BME280;54614;47.576;7.524;2023-02-14T15:42:53;99927.03;;;24.98;31.95
67818;BME280;54614;47.576;7.524;2023-02-14T15:47:55;99913.25;;;24.93;32.11
67818;BME280;54614;47.576;7.524;2023-02-14T15:50:29;99908.50;;;24.95;32.02
67818;BME280;54614;47.576;7.524;2023-02-14T15:55:47;99912.59;;;24.91;32.22
67818;BME280;54614;47.576;7.524;2023-02-14T15:58:26;99912.59;;;24.91;32.10